Terminal Aerodrome Forecast
Issued by NWS

Home | Current Version | Previous Version | Text Only | Print | Product List | Glossary On
Versions: 1 2 3 4 5 6 7 8 9 10 11 12 13 14 15 16 17 18 19 20 21 22 23 24 25 26
000
FTUS44 KSJT 031700 RRA
TAFJCT
TAF
KJCT 031744Z 0318/0418 VRB06KT P6SM OVC015
     FM032100 20011KT P6SM FEW020 BKN150
     FM040100 VRB04KT P6SM BKN120
     FM040500 VRB03KT 5SM BR OVC009=

USA.gov is the U.S. government's official web portal to all federal, state and local government web resources and services.